Portada
METAR-TAF:

METAR-TAF

Aeroports :

Cadillac, Michigan, Estats Units d'Amèrica

latitud: 44-17N, longitud: 085-25W, altitud: 398 m

Observació

L'informe es va fer fa 23 minuts, a les 02:16 UTC
Vent calma
Temperatura 20°C
Humitat 73%
Pressió 1015 hPa
Visibilitat: 16.1 km
Núvols disperses a una alçada de 7000 ft
Núvols disperses a una alçada de 12000 ft

METAR: KCAD 280216Z AUTO 00000KT 10SM SCT070 SCT120 20/15 A2996 RMK AO2 T02030153

Hora: 22:39 (02:39 UTC)


TAF: manca

Observacions i pronòstics meteorològics de més de 4000 aeroports (METAR i TAF).

Les estacions disponibles són els punts grocs i vermells al mapa.

Posi el ratolí al punt desitjat per veure el nom de l'estació.

Feu clic per veure les observacions i els pronòstics meteorològics.

Per canviar el mapa: feu clic els botons verds amb una creu de color negre per apropar; al botó verd amb un guió per allunyar la imatge; o en les fletxes verdes per a mapes adjacents.


METAR-TAF: